Calapan, Philippines
Current Conditions -  °F | °C
As of 5:00 PM on Thursday 23 Oct 2014 (Local Time) from RPLL Reporting Station
Scattered Clouds Scattered Clouds  
Wind Chill: 86°   Ceiling: Unl
Heat Index: 97°   Visibility: 6mi
Dew Point: 77°   Wind: 8mph
Humidity: 74%   Direction: 120°ESE
Pressure: 29.8"   Gusts: NA
Location:  13.42°N, 121.19°E
Report Text: RPLL 230900Z 12007KT 090V160 9999 FEW025 SCT100 30/25 Q1009 NOSIG RMK A2980
Loading
Personal Weather Stations






























Interactive Weather Map
Tropical Storm Tracking
New forecast layout! Learn more

10-Day Weather Forecast

Advertisements
Track Severe Weather on mobile